Time;durP1;ratioP1;P1;durP2;ratioP2;P2;SDS_P1;SDS_P2;PMS_P1;PMS_P2;Temp;Humidity;BMP_temperature;BMP_pressure;BME280_temperature;BME280_humidity;BME280_pressure;Samples;Min_cycle;Max_cycle;Signal;HPM_P1;HPM_P2
2021/09/16 00:00:54;;;;;;;5.03;1.63;;;;;;;;;;5054176;28;20027;-87
2021/09/16 00:03:20;;;;;;;6.80;1.80;;;;;;;;;;5054262;28;20028;-87
2021/09/16 00:05:45;;;;;;;6.50;1.60;;;;;;;;;;5055641;28;20444;-87
2021/09/16 00:08:10;;;;;;;5.40;1.85;;;;;;;;;;5054168;28;20027;-87
2021/09/16 00:10:35;;;;;;;5.80;1.65;;;;;;;;;;5055199;28;20017;-87
2021/09/16 00:13:00;;;;;;;6.18;1.77;;;;;;;;;;5054041;28;20108;-87
2021/09/16 00:15:26;;;;;;;5.30;1.90;;;;;;;;;;5055210;28;20017;-88
2021/09/16 00:17:51;;;;;;;4.00;2.30;;;;;;;;;;5045448;28;20037;-87
2021/09/16 00:20:16;;;;;;;6.90;2.20;;;;;;;;;;5053816;28;20028;-87
2021/09/16 00:22:42;;;;;;;8.27;2.35;;;;;;;;;;5053990;28;20029;-87
2021/09/16 00:25:07;;;;;;;3.60;2.17;;;;;;;;;;5053773;28;20024;-87
2021/09/16 00:27:33;;;;;;;4.43;1.98;;;;;;;;;;5053571;28;20025;-87
2021/09/16 00:29:58;;;;;;;6.53;2.65;;;;;;;;;;5046486;28;20417;-87
2021/09/16 00:32:23;;;;;;;5.43;2.40;;;;;;;;;;5053860;28;20870;-87
2021/09/16 00:34:48;;;;;;;4.95;2.42;;;;;;;;;;5055170;28;20423;-87
2021/09/16 00:37:15;;;;;;;8.35;2.25;;;;;;;;;;5052441;28;20036;-87
2021/09/16 00:39:41;;;;;;;7.60;2.10;;;;;;;;;;5046648;28;20017;-87
2021/09/16 00:42:06;;;;;;;12.23;2.40;;;;;;;;;;5053256;28;20381;-87
2021/09/16 00:44:31;;;;;;;5.20;2.25;;;;;;;;;;5053506;28;20014;-87
2021/09/16 00:46:57;;;;;;;7.40;2.30;;;;;;;;;;5053604;28;20492;-87
2021/09/16 00:49:22;;;;;;;10.32;2.55;;;;;;;;;;5054615;28;20070;-87
2021/09/16 00:51:48;;;;;;;3.90;2.60;;;;;;;;;;5053106;28;20075;-87
2021/09/16 00:54:13;;;;;;;3.55;2.13;;;;;;;;;;5054613;28;20103;-87
2021/09/16 00:56:39;;;;;;;6.80;2.95;;;;;;;;;;5053566;28;20025;-88
2021/09/16 00:59:04;;;;;;;9.07;3.40;;;;;;;;;;5053165;28;20593;-87
2021/09/16 01:01:30;;;;;;;7.05;3.17;;;;;;;;;;5052207;28;20120;-87
2021/09/16 01:03:56;;;;;;;7.03;3.20;;;;;;;;;;5053169;28;20025;-87
2021/09/16 01:06:22;;;;;;;8.48;3.35;;;;;;;;;;5053274;28;20444;-87
2021/09/16 01:08:47;;;;;;;8.90;3.40;;;;;;;;;;5040742;28;20095;-87
2021/09/16 01:11:13;;;;;;;8.52;3.53;;;;;;;;;;5049655;28;20059;-88
2021/09/16 01:13:38;;;;;;;10.15;3.78;;;;;;;;;;5053134;28;20029;-87
2021/09/16 01:16:03;;;;;;;8.07;3.72;;;;;;;;;;5052704;28;20460;-87
2021/09/16 01:18:28;;;;;;;7.20;3.83;;;;;;;;;;5052897;28;20083;-87
2021/09/16 01:20:54;;;;;;;11.00;5.18;;;;;;;;;;5053912;28;20032;-87
2021/09/16 01:23:21;;;;;;;11.23;5.05;;;;;;;;;;5053899;28;20055;-87
2021/09/16 01:25:46;;;;;;;8.50;3.85;;;;;;;;;;5054051;28;20021;-88
2021/09/16 01:28:11;;;;;;;8.60;4.18;;;;;;;;;;5054093;28;20028;-87
2021/09/16 01:30:37;;;;;;;17.77;3.80;;;;;;;;;;5052475;28;20067;-87
2021/09/16 01:33:02;;;;;;;7.25;3.47;;;;;;;;;;5038317;28;20044;-87
2021/09/16 01:35:28;;;;;;;8.02;3.40;;;;;;;;;;5042688;28;20108;-87
2021/09/16 01:37:53;;;;;;;10.95;3.10;;;;;;;;;;5037144;28;20021;-87
2021/09/16 01:40:19;;;;;;;8.38;3.47;;;;;;;;;;5032438;28;20045;-87
2021/09/16 01:42:45;;;;;;;8.50;3.45;;;;;;;;;;5046362;28;20018;-87
2021/09/16 01:45:14;;;;;;;8.20;3.80;;;;;;;;;;5032410;28;20028;-87
2021/09/16 01:47:40;;;;;;;9.27;4.30;;;;;;;;;;5032377;28;20477;-87
2021/09/16 01:50:06;;;;;;;9.05;4.18;;;;;;;;;;5032044;28;20017;-87
2021/09/16 01:52:31;;;;;;;14.10;4.50;;;;;;;;;;5032480;28;20376;-87
2021/09/16 01:54:56;;;;;;;7.53;3.35;;;;;;;;;;5033352;28;20013;-87
2021/09/16 01:57:21;;;;;;;8.88;3.75;;;;;;;;;;5032480;28;20021;-87
2021/09/16 01:59:47;;;;;;;12.60;4.13;;;;;;;;;;5032118;28;20017;-87
2021/09/16 02:02:12;;;;;;;8.95;4.35;;;;;;;;;;5032083;28;20087;-87
2021/09/16 02:04:38;;;;;;;10.95;3.88;;;;;;;;;;5031499;28;20112;-87
2021/09/16 02:07:03;;;;;;;8.20;3.65;;;;;;;;;;5031962;28;20040;-87
2021/09/16 02:09:28;;;;;;;15.05;4.00;;;;;;;;;;5033485;28;20025;-87
2021/09/16 02:11:53;;;;;;;10.65;3.95;;;;;;;;;;5065149;28;20109;-87
2021/09/16 02:14:19;;;;;;;10.05;3.83;;;;;;;;;;5031929;28;20496;-88
2021/09/16 02:16:44;;;;;;;6.88;3.83;;;;;;;;;;5032282;28;20100;-87
2021/09/16 02:19:09;;;;;;;9.13;3.30;;;;;;;;;;5031650;28;20086;-87
2021/09/16 02:21:34;;;;;;;8.18;3.35;;;;;;;;;;5031687;28;20032;-87
2021/09/16 02:24:00;;;;;;;9.60;3.35;;;;;;;;;;5031388;28;20025;-87
2021/09/16 02:26:25;;;;;;;15.07;4.20;;;;;;;;;;5031995;28;20550;-87
2021/09/16 02:28:50;;;;;;;12.48;3.50;;;;;;;;;;5031724;28;20362;-87
2021/09/16 02:31:15;;;;;;;9.52;4.10;;;;;;;;;;5033020;28;20457;-88
2021/09/16 02:33:41;;;;;;;6.22;3.45;;;;;;;;;;5031817;28;20041;-87
2021/09/16 02:36:06;;;;;;;6.72;3.17;;;;;;;;;;5031671;28;20018;-87
2021/09/16 02:38:31;;;;;;;7.50;3.53;;;;;;;;;;5031861;28;20017;-87
2021/09/16 02:40:56;;;;;;;11.68;3.55;;;;;;;;;;5031250;28;20017;-87
2021/09/16 02:43:21;;;;;;;12.65;3.50;;;;;;;;;;5031407;28;20105;-87
2021/09/16 02:45:47;;;;;;;16.77;3.35;;;;;;;;;;5032765;28;20013;-87
2021/09/16 02:48:13;;;;;;;8.50;3.30;;;;;;;;;;5031437;28;20125;-86
2021/09/16 02:50:38;;;;;;;14.75;3.90;;;;;;;;;;5064780;28;20026;-88
2021/09/16 02:53:03;;;;;;;9.98;3.63;;;;;;;;;;5065118;28;20030;-87
2021/09/16 02:55:28;;;;;;;7.25;3.58;;;;;;;;;;5064936;28;20468;-87
2021/09/16 02:57:54;;;;;;;10.65;3.70;;;;;;;;;;5032494;28;20029;-87
2021/09/16 03:00:19;;;;;;;11.63;4.05;;;;;;;;;;5031377;28;20030;-87
2021/09/16 03:02:44;;;;;;;11.07;3.88;;;;;;;;;;5032291;28;20013;-87
2021/09/16 03:05:10;;;;;;;6.78;3.45;;;;;;;;;;5031214;28;20039;-88
2021/09/16 03:07:35;;;;;;;7.20;3.35;;;;;;;;;;5031328;28;20013;-87
2021/09/16 03:10:00;;;;;;;8.63;4.20;;;;;;;;;;5031219;28;20036;-88
2021/09/16 03:12:25;;;;;;;8.50;3.20;;;;;;;;;;5031556;28;20025;-87
2021/09/16 03:14:51;;;;;;;11.27;4.00;;;;;;;;;;5031181;28;20021;-87
2021/09/16 03:17:16;;;;;;;8.13;3.65;;;;;;;;;;5031047;28;20021;-87
2021/09/16 03:19:41;;;;;;;16.10;4.18;;;;;;;;;;5035719;28;20385;-87
2021/09/16 03:22:06;;;;;;;11.50;4.45;;;;;;;;;;5031547;28;20048;-87
2021/09/16 03:24:31;;;;;;;11.95;4.35;;;;;;;;;;5034174;28;20013;-87
2021/09/16 03:26:57;;;;;;;9.55;3.67;;;;;;;;;;5035326;28;20022;-88
2021/09/16 03:29:22;;;;;;;10.68;4.15;;;;;;;;;;5035043;28;20025;-87
2021/09/16 03:31:47;;;;;;;7.50;3.80;;;;;;;;;;5034958;28;20037;-87
2021/09/16 03:34:12;;;;;;;6.38;4.07;;;;;;;;;;5035176;28;20020;-87
2021/09/16 03:36:37;;;;;;;13.10;4.22;;;;;;;;;;5035761;28;20092;-87
2021/09/16 03:39:03;;;;;;;9.55;3.92;;;;;;;;;;5034866;28;20055;-88
2021/09/16 03:41:28;;;;;;;12.80;4.13;;;;;;;;;;5034961;28;20021;-88
2021/09/16 03:43:53;;;;;;;9.18;4.55;;;;;;;;;;5034646;28;20029;-88
2021/09/16 03:46:18;;;;;;;9.90;4.25;;;;;;;;;;5034755;28;20033;-87
2021/09/16 03:48:44;;;;;;;14.52;4.93;;;;;;;;;;5034211;28;20481;-87
2021/09/16 03:51:09;;;;;;;12.48;4.63;;;;;;;;;;5034633;28;20033;-87
2021/09/16 03:53:34;;;;;;;9.45;4.50;;;;;;;;;;5046557;28;20021;-87
2021/09/16 03:55:59;;;;;;;14.95;4.22;;;;;;;;;;5038985;28;20083;-87
2021/09/16 03:58:25;;;;;;;12.23;4.00;;;;;;;;;;5034475;28;20428;-87
2021/09/16 04:00:50;;;;;;;9.80;4.20;;;;;;;;;;5034369;28;20025;-87
2021/09/16 04:03:16;;;;;;;13.40;4.20;;;;;;;;;;5035265;28;20420;-87
2021/09/16 04:05:41;;;;;;;12.40;4.60;;;;;;;;;;5035629;28;20473;-87
2021/09/16 04:08:06;;;;;;;14.50;4.30;;;;;;;;;;5034237;28;20021;-88
2021/09/16 04:10:31;;;;;;;12.45;4.30;;;;;;;;;;5034095;28;20025;-88
2021/09/16 04:12:57;;;;;;;9.55;4.18;;;;;;;;;;5033773;28;20119;-86
2021/09/16 04:15:22;;;;;;;11.23;3.95;;;;;;;;;;5034080;28;20017;-87
2021/09/16 04:17:47;;;;;;;17.52;4.60;;;;;;;;;;5033965;28;20033;-87
2021/09/16 04:20:16;;;;;;;8.75;3.30;;;;;;;;;;5020414;28;20394;-87
2021/09/16 04:22:42;;;;;;;8.23;3.72;;;;;;;;;;5034159;28;20025;-87
2021/09/16 04:25:07;;;;;;;11.68;3.50;;;;;;;;;;5048038;28;20448;-87
2021/09/16 04:27:32;;;;;;;7.45;4.07;;;;;;;;;;5033672;28;20017;-87
2021/09/16 04:29:57;;;;;;;12.07;4.00;;;;;;;;;;5034912;28;20013;-87
2021/09/16 04:32:23;;;;;;;8.63;3.78;;;;;;;;;;5035094;28;20024;-87
2021/09/16 04:34:48;;;;;;;9.60;3.90;;;;;;;;;;5033754;28;20237;-86
2021/09/16 04:37:13;;;;;;;15.98;4.55;;;;;;;;;;5033638;28;20013;-87
2021/09/16 04:39:38;;;;;;;9.23;4.05;;;;;;;;;;5035199;28;20112;-87
2021/09/16 04:42:05;;;;;;;11.07;3.72;;;;;;;;;;5033913;28;20028;-88
2021/09/16 04:44:31;;;;;;;10.27;4.00;;;;;;;;;;5033488;28;20026;-87
2021/09/16 04:46:56;;;;;;;10.00;3.60;;;;;;;;;;5033248;28;20020;-87
2021/09/16 04:49:21;;;;;;;7.75;3.60;;;;;;;;;;5033294;28;20017;-87
2021/09/16 04:51:46;;;;;;;7.28;3.40;;;;;;;;;;5033346;28;20021;-87
2021/09/16 04:54:11;;;;;;;15.00;3.65;;;;;;;;;;5033305;28;20018;-86
2021/09/16 04:56:37;;;;;;;8.05;3.20;;;;;;;;;;5033616;28;20017;-87
2021/09/16 04:59:02;;;;;;;8.30;3.28;;;;;;;;;;5034465;28;20029;-87
2021/09/16 05:01:27;;;;;;;11.75;2.95;;;;;;;;;;5032825;28;20108;-87
2021/09/16 05:03:52;;;;;;;11.35;3.40;;;;;;;;;;5033220;28;20029;-87
2021/09/16 05:06:18;;;;;;;8.63;2.95;;;;;;;;;;5032991;28;20034;-87
2021/09/16 05:08:43;;;;;;;8.18;3.25;;;;;;;;;;5033032;28;20033;-87
2021/09/16 05:11:09;;;;;;;8.27;3.35;;;;;;;;;;5032971;28;20036;-87
2021/09/16 05:13:34;;;;;;;7.35;2.60;;;;;;;;;;5033507;28;20071;-87
2021/09/16 05:15:59;;;;;;;8.05;2.88;;;;;;;;;;5046172;28;20024;-87
2021/09/16 05:18:24;;;;;;;7.05;2.80;;;;;;;;;;5033649;28;20495;-87
2021/09/16 05:20:50;;;;;;;7.28;2.80;;;;;;;;;;5034200;28;20079;-87
2021/09/16 05:23:15;;;;;;;7.10;2.40;;;;;;;;;;5032875;28;20021;-87
2021/09/16 05:25:40;;;;;;;10.05;2.70;;;;;;;;;;5032887;28;20029;-87
2021/09/16 05:28:05;;;;;;;4.82;2.30;;;;;;;;;;5032774;28;20026;-87
2021/09/16 05:30:31;;;;;;;8.38;2.50;;;;;;;;;;5033573;28;20469;-87
2021/09/16 05:32:56;;;;;;;9.38;2.58;;;;;;;;;;5032777;28;20074;-87
2021/09/16 05:35:21;;;;;;;6.55;2.63;;;;;;;;;;5032308;28;20032;-87
2021/09/16 05:37:46;;;;;;;7.88;2.40;;;;;;;;;;5043219;28;20078;-87
2021/09/16 05:40:12;;;;;;;7.40;2.50;;;;;;;;;;5035872;28;20026;-86
2021/09/16 05:42:37;;;;;;;15.15;2.67;;;;;;;;;;5033710;28;20018;-87
2021/09/16 05:45:06;;;;;;;11.13;2.20;;;;;;;;;;5032264;28;20025;-87
2021/09/16 05:47:31;;;;;;;5.70;2.28;;;;;;;;;;5030885;28;20029;-87
2021/09/16 05:49:56;;;;;;;7.00;2.70;;;;;;;;;;5031260;28;20029;-87
2021/09/16 05:52:22;;;;;;;7.53;2.60;;;;;;;;;;5031520;28;20052;-86
2021/09/16 05:54:47;;;;;;;7.78;2.10;;;;;;;;;;5023137;28;20056;-88
2021/09/16 05:57:12;;;;;;;9.95;2.45;;;;;;;;;;5033191;28;20124;-88
2021/09/16 05:59:38;;;;;;;7.95;2.60;;;;;;;;;;5032066;28;20424;-88
2021/09/16 06:02:03;;;;;;;9.00;2.22;;;;;;;;;;5031128;28;20022;-89
2021/09/16 06:04:30;;;;;;;6.45;2.50;;;;;;;;;;5045806;28;20120;-88
2021/09/16 06:06:55;;;;;;;6.30;2.40;;;;;;;;;;5041799;28;20512;-88
2021/09/16 06:09:21;;;;;;;6.75;2.17;;;;;;;;;;5030430;28;20109;-89
2021/09/16 06:11:46;;;;;;;4.50;2.05;;;;;;;;;;5038662;28;20041;-88
2021/09/16 06:14:11;;;;;;;8.13;2.80;;;;;;;;;;5039549;28;20033;-89
2021/09/16 06:16:36;;;;;;;5.97;2.65;;;;;;;;;;5031764;28;20021;-88
2021/09/16 06:19:02;;;;;;;8.20;2.40;;;;;;;;;;5028873;28;20014;-88
2021/09/16 06:21:27;;;;;;;5.00;2.40;;;;;;;;;;5024677;28;20385;-88
2021/09/16 06:23:52;;;;;;;7.88;2.10;;;;;;;;;;5033150;28;20048;-89
2021/09/16 06:26:18;;;;;;;5.72;2.88;;;;;;;;;;5030881;28;20111;-89
2021/09/16 06:28:43;;;;;;;9.00;2.65;;;;;;;;;;5025522;28;20022;-88
2021/09/16 06:31:08;;;;;;;6.95;2.28;;;;;;;;;;5029877;28;20025;-89
2021/09/16 06:33:34;;;;;;;9.27;2.60;;;;;;;;;;5022596;28;20025;-89
2021/09/16 06:35:59;;;;;;;7.70;2.85;;;;;;;;;;5022219;28;20014;-88
2021/09/16 06:38:24;;;;;;;6.45;2.45;;;;;;;;;;5026154;28;20068;-88
2021/09/16 06:40:50;;;;;;;7.40;2.75;;;;;;;;;;5039268;28;20075;-89
2021/09/16 06:43:15;;;;;;;5.78;2.72;;;;;;;;;;5044329;28;20520;-89
2021/09/16 06:45:40;;;;;;;9.43;3.00;;;;;;;;;;5035777;28;20022;-89
2021/09/16 06:48:05;;;;;;;11.10;2.88;;;;;;;;;;5044205;28;20432;-89
2021/09/16 06:50:31;;;;;;;12.43;2.60;;;;;;;;;;5045065;28;20112;-89
2021/09/16 06:52:56;;;;;;;8.05;3.25;;;;;;;;;;5031887;28;20513;-89
2021/09/16 06:55:21;;;;;;;10.85;2.65;;;;;;;;;;5031226;28;20576;-89
2021/09/16 06:57:47;;;;;;;5.68;2.80;;;;;;;;;;5031481;28;20485;-90
2021/09/16 07:00:12;;;;;;;10.07;3.35;;;;;;;;;;5026430;28;20021;-89
2021/09/16 07:02:37;;;;;;;8.02;3.30;;;;;;;;;;5035151;28;20025;-87
2021/09/16 07:05:06;;;;;;;7.75;3.83;;;;;;;;;;5034987;28;20017;-89
2021/09/16 07:07:31;;;;;;;15.55;4.35;;;;;;;;;;5036083;28;20087;-89
2021/09/16 07:09:57;;;;;;;12.70;4.35;;;;;;;;;;5035214;28;20014;-89
2021/09/16 07:12:22;;;;;;;9.18;3.88;;;;;;;;;;5034748;28;20022;-89
2021/09/16 07:14:48;;;;;;;12.00;5.05;;;;;;;;;;5038955;28;20045;-88
2021/09/16 07:17:13;;;;;;;10.20;4.70;;;;;;;;;;5035262;28;20018;-89
2021/09/16 07:19:38;;;;;;;17.25;5.57;;;;;;;;;;5035302;28;20026;-89
2021/09/16 07:22:04;;;;;;;11.43;4.72;;;;;;;;;;5035500;28;20013;-89
2021/09/16 07:24:29;;;;;;;11.65;4.97;;;;;;;;;;5035304;28;20017;-89
2021/09/16 07:26:54;;;;;;;13.93;4.78;;;;;;;;;;5034992;28;20408;-90
2021/09/16 07:29:20;;;;;;;10.32;4.43;;;;;;;;;;5035256;28;20065;-89
2021/09/16 07:31:47;;;;;;;12.13;4.80;;;;;;;;;;5034077;28;20017;-89
2021/09/16 07:34:12;;;;;;;11.82;5.72;;;;;;;;;;5042709;28;20021;-88
2021/09/16 07:36:39;;;;;;;10.68;4.10;;;;;;;;;;5037601;28;20048;-89
2021/09/16 07:39:04;;;;;;;25.42;6.20;;;;;;;;;;5032926;28;20380;-88
2021/09/16 07:41:30;;;;;;;11.73;5.57;;;;;;;;;;5032501;28;20029;-89
2021/09/16 07:43:55;;;;;;;14.07;6.00;;;;;;;;;;5033172;28;20021;-89
2021/09/16 07:46:20;;;;;;;17.05;5.60;;;;;;;;;;5033023;28;20021;-89
2021/09/16 07:48:45;;;;;;;13.93;5.88;;;;;;;;;;5033155;28;20021;-89
2021/09/16 07:51:11;;;;;;;16.27;6.50;;;;;;;;;;5033860;28;20028;-88
2021/09/16 07:53:36;;;;;;;16.30;8.45;;;;;;;;;;5033329;28;20100;-88
2021/09/16 07:56:02;;;;;;;16.08;6.35;;;;;;;;;;5034637;28;20118;-88
2021/09/16 07:58:27;;;;;;;17.17;7.95;;;;;;;;;;5033422;28;20477;-88
2021/09/16 08:00:52;;;;;;;17.42;7.32;;;;;;;;;;5032508;28;20017;-88
2021/09/16 08:03:18;;;;;;;19.25;5.97;;;;;;;;;;5032856;28;20381;-89
2021/09/16 08:05:43;;;;;;;15.15;7.22;;;;;;;;;;5034196;28;20116;-89
2021/09/16 08:08:09;;;;;;;16.80;7.50;;;;;;;;;;5035552;28;20365;-89
2021/09/16 08:10:35;;;;;;;17.42;7.32;;;;;;;;;;5035184;28;20017;-88
2021/09/16 08:13:00;;;;;;;15.77;7.25;;;;;;;;;;5034173;28;20104;-89
2021/09/16 08:15:25;;;;;;;22.35;8.98;;;;;;;;;;5034955;28;20041;-88
2021/09/16 08:17:51;;;;;;;16.63;7.65;;;;;;;;;;5034244;28;20025;-88
2021/09/16 08:20:17;;;;;;;14.57;6.50;;;;;;;;;;5034159;28;20041;-88
2021/09/16 08:22:44;;;;;;;17.27;7.88;;;;;;;;;;5034238;28;20028;-88
2021/09/16 08:25:10;;;;;;;19.08;7.88;;;;;;;;;;5037740;28;20081;-88
2021/09/16 08:27:35;;;;;;;27.95;8.23;;;;;;;;;;5036332;28;20067;-88
2021/09/16 08:30:07;;;;;;;16.30;6.68;;;;;;;;;;5031580;28;20018;-86
2021/09/16 08:32:32;;;;;;;17.00;7.63;;;;;;;;;;5032543;28;20028;-86
2021/09/16 08:34:58;;;;;;;12.68;6.53;;;;;;;;;;5033923;28;20044;-86
2021/09/16 08:37:23;;;;;;;21.65;8.40;;;;;;;;;;5026706;28;20022;-86
2021/09/16 08:39:48;;;;;;;16.92;7.20;;;;;;;;;;5033266;28;20645;-87
2021/09/16 08:42:15;;;;;;;17.58;7.43;;;;;;;;;;5032842;28;20018;-86
2021/09/16 08:44:43;;;;;;;12.02;5.80;;;;;;;;;;5033444;28;20021;-86
2021/09/16 08:47:10;;;;;;;12.93;6.10;;;;;;;;;;5032119;28;20031;-85
2021/09/16 08:49:36;;;;;;;14.05;6.30;;;;;;;;;;5033197;28;20021;-85
2021/09/16 08:52:01;;;;;;;9.90;4.57;;;;;;;;;;5033370;28;20025;-86
2021/09/16 08:54:27;;;;;;;13.00;5.57;;;;;;;;;;5033465;28;20022;-86
2021/09/16 08:56:53;;;;;;;15.05;5.63;;;;;;;;;;5032411;28;20017;-86
2021/09/16 08:59:19;;;;;;;14.38;5.47;;;;;;;;;;5032633;28;20044;-86
2021/09/16 09:01:45;;;;;;;13.82;3.25;;;;;;;;;;5032960;28;20033;-88
2021/09/16 09:04:12;;;;;;;8.05;3.53;;;;;;;;;;5032957;28;20029;-88
2021/09/16 09:06:38;;;;;;;10.60;4.20;;;;;;;;;;5027629;28;20341;-88
2021/09/16 09:09:07;;;;;;;12.02;6.78;;;;;;;;;;5028555;28;20022;-92
2021/09/16 09:11:32;;;;;;;7.90;5.07;;;;;;;;;;5033387;28;20366;-92
2021/09/16 09:13:57;;;;;;;17.08;6.03;;;;;;;;;;5026767;28;20033;-93
2021/09/16 09:16:33;;;;;;;10.82;5.60;;;;;;;;;;5022971;28;20054;-93
2021/09/16 09:18:58;;;;;;;15.32;6.88;;;;;;;;;;5034680;28;20084;-91
2021/09/16 09:21:23;;;;;;;14.63;8.10;;;;;;;;;;5058425;28;20034;-85
2021/09/16 09:23:55;;;;;;;16.92;7.60;;;;;;;;;;5033767;28;20031;-87
2021/09/16 09:26:31;;;;;;;13.48;5.97;;;;;;;;;;5031568;28;20037;-87
2021/09/16 09:29:09;;;;;;;13.15;7.85;;;;;;;;;;5031726;28;20415;-87
2021/09/16 09:31:54;;;;;;;9.68;6.43;;;;;;;;;;5030864;28;20018;-86
2021/09/16 09:34:22;;;;;;;8.27;5.03;;;;;;;;;;5024325;28;20057;-87
2021/09/16 09:36:49;;;;;;;14.90;5.50;;;;;;;;;;5033436;28;20025;-87
2021/09/16 09:39:14;;;;;;;10.00;6.45;;;;;;;;;;5032380;28;20076;-87
2021/09/16 09:41:39;;;;;;;9.98;6.55;;;;;;;;;;5031056;28;20393;-87
2021/09/16 09:44:10;;;;;;;9.70;5.57;;;;;;;;;;5031965;28;20032;-87
2021/09/16 09:46:47;;;;;;;8.20;4.72;;;;;;;;;;5031325;28;20036;-86
2021/09/16 09:49:14;;;;;;;17.92;8.23;;;;;;;;;;5045552;28;20033;-86
2021/09/16 09:51:51;;;;;;;11.80;6.68;;;;;;;;;;5021486;28;20025;-87
2021/09/16 09:54:27;;;;;;;16.23;6.93;;;;;;;;;;5026528;28;20025;-87
2021/09/16 09:57:01;;;;;;;13.95;6.95;;;;;;;;;;5064992;28;20017;-87
2021/09/16 09:59:29;;;;;;;13.07;5.68;;;;;;;;;;5032090;28;20108;-88
2021/09/16 10:02:02;;;;;;;13.98;6.60;;;;;;;;;;5032093;28;20047;-88
2021/09/16 10:04:28;;;;;;;18.88;5.80;;;;;;;;;;5032172;28;20046;-88
2021/09/16 10:06:57;;;;;;;12.70;5.68;;;;;;;;;;5032790;28;20045;-90
2021/09/16 10:09:23;;;;;;;13.75;5.40;;;;;;;;;;5032686;28;20021;-90
2021/09/16 10:11:49;;;;;;;9.45;4.93;;;;;;;;;;5032971;28;20075;-90
2021/09/16 10:14:15;;;;;;;9.55;5.15;;;;;;;;;;5032730;28;20108;-90
2021/09/16 10:16:41;;;;;;;7.97;4.20;;;;;;;;;;5032998;28;20024;-90
2021/09/16 10:19:07;;;;;;;9.82;5.10;;;;;;;;;;5033007;28;20017;-89
2021/09/16 10:21:32;;;;;;;10.20;4.97;;;;;;;;;;5035359;28;20140;-90
2021/09/16 10:24:00;;;;;;;12.63;5.00;;;;;;;;;;5045017;28;20022;-89
2021/09/16 10:26:35;;;;;;;8.55;3.90;;;;;;;;;;5032419;28;20412;-89
2021/09/16 10:29:02;;;;;;;6.43;3.00;;;;;;;;;;5032417;28;20087;-89
2021/09/16 10:31:27;;;;;;;7.50;3.80;;;;;;;;;;5032214;28;20022;-88
2021/09/16 10:33:52;;;;;;;9.32;3.67;;;;;;;;;;5032269;28;20025;-90
2021/09/16 10:36:18;;;;;;;8.57;3.80;;;;;;;;;;5033839;28;20032;-90
2021/09/16 10:38:43;;;;;;;4.30;2.63;;;;;;;;;;5032515;28;20023;-90
2021/09/16 10:41:18;;;;;;;5.43;2.38;;;;;;;;;;5065720;28;20038;-90
2021/09/16 10:44:03;;;;;;;2.72;1.80;;;;;;;;;;5065658;28;20028;-90
2021/09/16 10:46:29;;;;;;;9.30;2.85;;;;;;;;;;5028602;28;20366;-89
2021/09/16 10:48:54;;;;;;;4.00;2.47;;;;;;;;;;5065438;28;20040;-89
2021/09/16 10:51:36;;;;;;;7.40;2.70;;;;;;;;;;5032413;28;20435;-90
2021/09/16 10:54:01;;;;;;;9.60;3.25;;;;;;;;;;5026325;28;20017;-89
2021/09/16 10:56:30;;;;;;;5.05;2.70;;;;;;;;;;5032090;28;20025;-89
2021/09/16 10:58:55;;;;;;;10.43;3.63;;;;;;;;;;5065333;28;20025;-90
2021/09/16 11:01:39;;;;;;;8.60;3.53;;;;;;;;;;5032064;28;20115;-90
2021/09/16 11:04:07;;;;;;;7.03;3.50;;;;;;;;;;5035922;28;20104;-89
2021/09/16 11:06:50;;;;;;;6.65;2.88;;;;;;;;;;5031438;28;20090;-90
2021/09/16 11:09:26;;;;;;;6.68;2.63;;;;;;;;;;5032204;28;20018;-89
2021/09/16 11:11:55;;;;;;;6.60;3.53;;;;;;;;;;5028933;28;20402;-89
2021/09/16 11:14:30;;;;;;;7.30;2.45;;;;;;;;;;5034341;28;20404;-90
2021/09/16 11:16:56;;;;;;;9.35;3.03;;;;;;;;;;5029240;28;20020;-89
2021/09/16 11:19:22;;;;;;;6.38;3.03;;;;;;;;;;5031450;28;20021;-89
2021/09/16 11:22:05;;;;;;;6.53;3.28;;;;;;;;;;5033008;28;20096;-89
2021/09/16 11:24:38;;;;;;;4.45;1.90;;;;;;;;;;5025230;28;20056;-89
2021/09/16 11:27:04;;;;;;;4.28;2.10;;;;;;;;;;5028618;28;20021;-90
2021/09/16 11:29:43;;;;;;;6.35;2.35;;;;;;;;;;5032560;28;20021;-90
2021/09/16 11:32:08;;;;;;;4.30;2.33;;;;;;;;;;5031673;28;20048;-90
2021/09/16 11:34:35;;;;;;;7.63;2.00;;;;;;;;;;5039490;28;20018;-89
2021/09/16 11:37:14;;;;;;;3.30;1.42;;;;;;;;;;5030168;28;20037;-90
2021/09/16 11:39:39;;;;;;;1.80;1.13;;;;;;;;;;5025194;28;20033;-88
2021/09/16 11:42:12;;;;;;;3.97;1.40;;;;;;;;;;5022164;28;20026;-89
2021/09/16 11:44:53;;;;;;;3.85;1.25;;;;;;;;;;5020032;28;20358;-89
2021/09/16 11:47:18;;;;;;;2.88;1.10;;;;;;;;;;5026320;28;20032;-89
2021/09/16 11:49:43;;;;;;;1.73;1.10;;;;;;;;;;5035266;28;20384;-89
2021/09/16 11:52:08;;;;;;;3.00;1.52;;;;;;;;;;5036700;28;20025;-89
2021/09/16 11:54:34;;;;;;;3.38;1.48;;;;;;;;;;5039817;28;20010;-90
2021/09/16 11:57:02;;;;;;;2.47;1.35;;;;;;;;;;5035286;28;20017;-90
2021/09/16 11:59:27;;;;;;;3.03;0.80;;;;;;;;;;5049210;28;20380;-89
2021/09/16 12:01:56;;;;;;;1.27;0.90;;;;;;;;;;5043401;28;20027;-89
2021/09/16 12:04:37;;;;;;;2.08;1.10;;;;;;;;;;5068334;28;20063;-89
2021/09/16 12:07:03;;;;;;;0.88;0.70;;;;;;;;;;5044487;28;20025;-89
2021/09/16 12:09:29;;;;;;;2.10;0.88;;;;;;;;;;5039199;28;20025;-89
2021/09/16 12:11:59;;;;;;;3.17;0.93;;;;;;;;;;5033429;28;20097;-89
2021/09/16 12:14:24;;;;;;;2.55;0.88;;;;;;;;;;5034640;28;20041;-89
2021/09/16 12:16:49;;;;;;;1.67;0.98;;;;;;;;;;5036001;28;20042;-90
2021/09/16 12:19:16;;;;;;;2.75;0.95;;;;;;;;;;5034843;28;20017;-89
2021/09/16 12:21:51;;;;;;;1.98;1.25;;;;;;;;;;5034573;28;20040;-89
2021/09/16 12:24:18;;;;;;;1.63;0.77;;;;;;;;;;5036199;28;20021;-89
2021/09/16 12:26:48;;;;;;;3.80;0.82;;;;;;;;;;5034637;28;20021;-89
2021/09/16 12:29:14;;;;;;;1.88;0.90;;;;;;;;;;5035691;28;20021;-89
2021/09/16 12:31:43;;;;;;;1.83;1.00;;;;;;;;;;5035303;28;20083;-89
2021/09/16 12:34:13;;;;;;;1.02;0.80;;;;;;;;;;5034385;28;20013;-89
2021/09/16 12:36:58;;;;;;;3.15;0.95;;;;;;;;;;5034153;28;20045;-89
2021/09/16 12:39:25;;;;;;;3.75;1.10;;;;;;;;;;5035462;28;20032;-89
2021/09/16 12:42:00;;;;;;;1.90;1.13;;;;;;;;;;5035576;28;20017;-89
2021/09/16 12:44:26;;;;;;;1.58;1.17;;;;;;;;;;5034175;28;20040;-89
2021/09/16 12:46:52;;;;;;;2.58;1.20;;;;;;;;;;5034175;28;20120;-89
2021/09/16 12:49:36;;;;;;;4.90;1.40;;;;;;;;;;5036485;28;20109;-89
2021/09/16 12:52:06;;;;;;;4.43;1.20;;;;;;;;;;5079627;28;20025;-89
2021/09/16 12:54:32;;;;;;;4.88;1.17;;;;;;;;;;5035542;28;20084;-89
2021/09/16 12:56:59;;;;;;;2.13;1.00;;;;;;;;;;5025575;28;20473;-89
2021/09/16 12:59:25;;;;;;;2.70;1.13;;;;;;;;;;5030004;28;20364;-89
2021/09/16 13:02:09;;;;;;;5.03;1.20;;;;;;;;;;5038398;28;20422;-89
2021/09/16 13:05:09;;;;;;;1.40;1.10;;;;;;;;;;5033743;28;20022;-89
2021/09/16 13:07:35;;;;;;;1.65;1.10;;;;;;;;;;5017563;28;20501;-89
2021/09/16 13:10:10;;;;;;;5.03;1.08;;;;;;;;;;5034772;28;20469;-89
2021/09/16 13:12:36;;;;;;;2.03;1.20;;;;;;;;;;5066762;28;20025;-89
2021/09/16 13:15:01;;;;;;;1.65;0.98;;;;;;;;;;5033458;28;20017;-89
2021/09/16 13:17:27;;;;;;;1.58;1.17;;;;;;;;;;5032254;28;20112;-89
2021/09/16 13:19:55;;;;;;;1.75;0.98;;;;;;;;;;5030795;28;20063;-89
2021/09/16 13:22:21;;;;;;;1.40;0.80;;;;;;;;;;5033606;28;20017;-89
2021/09/16 13:24:46;;;;;;;2.63;1.08;;;;;;;;;;5019079;28;20022;-90
2021/09/16 13:27:12;;;;;;;1.85;1.20;;;;;;;;;;5034851;28;20014;-89
2021/09/16 13:29:37;;;;;;;3.10;0.90;;;;;;;;;;5042358;28;20021;-89
2021/09/16 13:32:02;;;;;;;1.95;1.20;;;;;;;;;;5035125;28;20010;-89
2021/09/16 13:34:28;;;;;;;1.08;0.73;;;;;;;;;;5033272;28;20488;-89
2021/09/16 13:36:53;;;;;;;3.10;1.27;;;;;;;;;;5032929;28;20006;-89
2021/09/16 13:39:18;;;;;;;1.65;0.90;;;;;;;;;;5032164;28;20022;-89
2021/09/16 13:41:44;;;;;;;2.80;1.30;;;;;;;;;;5028156;28;20021;-89
2021/09/16 13:44:09;;;;;;;1.75;1.20;;;;;;;;;;5034224;28;20035;-89
2021/09/16 13:46:38;;;;;;;2.92;1.10;;;;;;;;;;5029700;28;20033;-89
2021/09/16 13:49:03;;;;;;;2.75;1.13;;;;;;;;;;5030331;28;20184;-89
2021/09/16 13:51:30;;;;;;;2.35;1.05;;;;;;;;;;5032953;28;20052;-89
2021/09/16 13:53:55;;;;;;;1.95;0.90;;;;;;;;;;5032918;28;20080;-88
2021/09/16 13:56:23;;;;;;;2.70;0.90;;;;;;;;;;5034107;28;20033;-89
2021/09/16 13:58:48;;;;;;;2.13;0.90;;;;;;;;;;5032743;28;20083;-89
2021/09/16 14:01:14;;;;;;;1.02;0.80;;;;;;;;;;5032346;28;20029;-89
2021/09/16 14:03:39;;;;;;;1.70;0.98;;;;;;;;;;5032976;28;20021;-89
2021/09/16 14:06:04;;;;;;;1.90;0.98;;;;;;;;;;5032930;28;20526;-89
2021/09/16 14:08:29;;;;;;;1.50;1.20;;;;;;;;;;5026747;28;20018;-89
2021/09/16 14:10:55;;;;;;;1.42;0.90;;;;;;;;;;5032704;28;20372;-89
2021/09/16 14:13:20;;;;;;;4.50;1.13;;;;;;;;;;5065858;28;20026;-89
2021/09/16 14:15:46;;;;;;;2.22;1.10;;;;;;;;;;5025454;28;20025;-89
2021/09/16 14:18:12;;;;;;;3.17;1.00;;;;;;;;;;5032503;28;20438;-89
2021/09/16 14:20:37;;;;;;;5.72;1.00;;;;;;;;;;5031338;28;20057;-89
2021/09/16 14:23:02;;;;;;;2.78;1.20;;;;;;;;;;5028636;28;20358;-89
2021/09/16 14:25:27;;;;;;;1.52;0.95;;;;;;;;;;5031897;28;20037;-89
2021/09/16 14:27:53;;;;;;;2.13;1.27;;;;;;;;;;5031935;28;20032;-89
2021/09/16 14:30:18;;;;;;;4.13;1.25;;;;;;;;;;5031648;28;20025;-89
2021/09/16 14:32:43;;;;;;;1.60;1.10;;;;;;;;;;5043142;28;20021;-89
2021/09/16 14:35:09;;;;;;;2.05;1.30;;;;;;;;;;5034837;28;20052;-89